Terminal Aerodrome Forecast
Issued by NWS

Home | Current Version | Previous Version | Text Only | Print | Product List | Glossary On
Versions: 1 2 3 4 5 6 7 8 9 10 11 12 13 14 15 16
000
FTUS45 KABQ 260500
TAFTCC
TAF
KTCC 260536Z 2606/2706 21008KT P6SM SCT120
     FM260900 VRB04KT P6SM BKN100
     FM261400 05010KT P6SM OVC015
      TEMPO 2615/2619 2SM -SN OVC009
     FM261900 06008KT P6SM OVC025=

USA.gov is the U.S. government's official web portal to all federal, state and local government web resources and services.